Time;durP1;ratioP1;P1;durP2;ratioP2;P2;SDS_P1;SDS_P2;PMS_P1;PMS_P2;Temp;Humidity;BMP_temperature;BMP_pressure;BME280_temperature;BME280_humidity;BME280_pressure;Samples;Min_cycle;Max_cycle;Signal;HPM_P1;HPM_P2
2023/11/01 06:29:07;;;;;;;24.70;10.80;;;;;;;14.21;100.00;99397.04;112660;1249;22361;-60
2023/11/01 06:31:34;;;;;;;28.50;10.60;;;;;;;14.21;100.00;99392.99;112794;1239;22386;-58
2023/11/01 06:34:26;;;;;;;22.80;10.40;;;;;;;14.22;100.00;99392.98;112816;1249;22451;-59
2023/11/01 06:36:53;;;;;;;28.30;11.50;;;;;;;14.23;100.00;99396.27;112669;1249;22519;-58
2023/11/01 06:39:22;;;;;;;28.00;10.60;;;;;;;14.26;100.00;99393.91;112855;1242;22413;-58
2023/11/01 06:41:59;;;;;;;19.90;10.20;;;;;;;14.29;100.00;99395.23;111975;1242;23300;-58
2023/11/01 06:44:33;;;;;;;26.00;10.80;;;;;;;14.32;100.00;99397.77;112250;1249;22397;-61
2023/11/01 06:47:00;;;;;;;27.70;11.50;;;;;;;14.33;100.00;99397.55;112115;1237;22432;-60
2023/11/01 06:49:28;;;;;;;28.60;11.80;;;;;;;14.34;100.00;99398.22;112317;1235;22408;-60
2023/11/01 06:51:59;;;;;;;26.80;11.90;;;;;;;14.36;100.00;99393.95;112046;1245;23242;-61
2023/11/01 06:54:34;;;;;;;25.90;12.00;;;;;;;14.38;100.00;99390.91;112560;1249;23053;-60
2023/11/01 06:57:01;;;;;;;27.10;11.40;;;;;;;14.41;100.00;99390.64;112264;1249;22833;-59
2023/11/01 06:59:34;;;;;;;26.50;12.80;;;;;;;14.43;100.00;99387.79;112366;1240;22955;-58
2023/11/01 07:06:07;;;;;;;26.00;12.90;;;;;;;14.46;100.00;99388.06;112546;1236;23119;-58
2023/11/01 07:09:36;;;;;;;26.00;12.20;;;;;;;14.46;100.00;99384.89;112646;1239;23208;-59
2023/11/01 07:13:35;;;;;;;23.00;11.90;;;;;;;14.47;100.00;99380.85;112780;1241;22330;-60
2023/11/01 07:17:26;;;;;;;29.70;12.50;;;;;;;14.50;100.00;99388.85;112569;1249;22861;-60
2023/11/01 07:25:18;;;;;;;30.30;13.40;;;;;;;14.53;100.00;99374.70;112189;1249;22185;-59
2023/11/01 07:28:21;;;;;;;21.00;13.40;;;;;;;14.56;100.00;99377.27;112725;1248;23271;-61
2023/11/01 07:30:55;;;;;;;26.10;13.20;;;;;;;14.59;100.00;99373.80;112151;1249;22448;-59
2023/11/01 07:33:39;;;;;;;29.20;13.50;;;;;;;14.65;100.00;99373.46;112448;1249;22460;-60
2023/11/01 07:36:09;;;;;;;23.00;13.10;;;;;;;14.70;100.00;99373.46;112334;1239;22581;-60
2023/11/01 07:38:38;;;;;;;31.60;15.30;;;;;;;14.75;100.00;99377.00;112454;1249;23218;-59
2023/11/01 07:41:09;;;;;;;31.30;15.80;;;;;;;14.79;100.00;99376.52;112083;1242;22412;-59
2023/11/01 07:43:36;;;;;;;33.50;16.50;;;;;;;14.85;100.00;99375.82;111909;1238;22474;-60
2023/11/01 07:46:03;;;;;;;35.30;16.40;;;;;;;14.92;100.00;99375.23;112811;1249;22439;-58
2023/11/01 07:48:30;;;;;;;31.10;15.60;;;;;;;14.99;100.00;99369.40;112132;1249;22217;-61
2023/11/01 07:50:57;;;;;;;26.30;14.40;;;;;;;15.07;100.00;99374.73;112771;1246;23072;-58
2023/11/01 07:53:24;;;;;;;32.90;16.70;;;;;;;15.14;100.00;99378.38;111921;1238;22502;-59
2023/11/01 07:55:53;;;;;;;30.40;15.80;;;;;;;15.18;100.00;99375.59;112590;1249;22394;-60
2023/11/01 07:58:20;;;;;;;27.70;15.80;;;;;;;15.22;100.00;99377.60;112797;1240;22427;-60
2023/11/01 08:00:47;;;;;;;32.80;16.90;;;;;;;15.25;100.00;99375.38;112744;1249;23128;-60
2023/11/01 08:03:14;;;;;;;27.00;14.60;;;;;;;15.30;100.00;99373.13;112602;1239;22381;-60
2023/11/01 08:05:42;;;;;;;32.20;16.60;;;;;;;15.33;100.00;99364.04;112548;1249;26548;-61
2023/11/01 08:08:16;;;;;;;33.00;16.90;;;;;;;15.37;100.00;99362.48;112272;1249;22445;-62
2023/11/01 08:10:53;;;;;;;28.80;14.50;;;;;;;15.40;100.00;99362.02;112346;1251;22883;-61
2023/11/01 08:13:34;;;;;;;30.00;14.90;;;;;;;15.43;100.00;99358.43;112152;1250;23072;-58
2023/11/01 08:16:02;;;;;;;36.70;16.40;;;;;;;15.47;100.00;99356.89;112536;1251;22890;-58
2023/11/01 08:18:31;;;;;;;27.80;15.80;;;;;;;15.51;100.00;99359.93;112451;1251;22874;-58
2023/11/01 08:21:02;;;;;;;35.10;16.70;;;;;;;15.54;100.00;99360.15;112484;1251;23733;-60
2023/11/01 08:23:31;;;;;;;30.50;16.90;;;;;;;15.58;100.00;99356.84;112344;1251;22841;-57
2023/11/01 08:25:58;;;;;;;37.40;16.20;;;;;;;15.63;100.00;99353.36;111267;1249;22662;-62
2023/11/01 08:28:26;;;;;;;33.00;19.70;;;;;;;15.67;100.00;99354.63;112207;1251;22500;-61
2023/11/01 08:30:55;;;;;;;39.40;16.70;;;;;;;15.71;100.00;99348.67;112213;1251;23381;-59
2023/11/01 08:33:25;;;;;;;42.60;17.90;;;;;;;15.77;100.00;99350.05;112411;1251;23209;-58
2023/11/01 08:35:55;;;;;;;29.50;16.50;;;;;;;15.86;100.00;99356.22;112400;1251;22486;-61
2023/11/01 08:38:22;;;;;;;32.30;16.40;;;;;;;15.96;100.00;99352.52;112390;1251;22474;-59
2023/11/01 08:40:49;;;;;;;31.60;15.10;;;;;;;16.08;100.00;99346.98;112427;1248;22522;-60
2023/11/01 08:43:20;;;;;;;34.10;17.50;;;;;;;16.23;100.00;99335.48;112333;1251;22437;-60
2023/11/01 08:45:47;;;;;;;32.70;17.80;;;;;;;16.37;100.00;99337.07;112427;1238;22299;-57
2023/11/01 08:48:18;;;;;;;28.60;16.00;;;;;;;16.48;100.00;99339.80;112086;1251;22982;-59
2023/11/01 08:50:45;;;;;;;35.30;17.50;;;;;;;16.55;100.00;99336.90;111576;1251;23843;-59
2023/11/01 08:53:13;;;;;;;37.00;17.20;;;;;;;16.60;100.00;99328.25;112517;1251;24207;-58
2023/11/01 08:55:43;;;;;;;39.90;18.40;;;;;;;16.66;100.00;99322.36;112256;1251;22563;-59
2023/11/01 08:58:13;;;;;;;31.80;16.90;;;;;;;16.75;100.00;99322.92;112122;1251;22970;-59
2023/11/01 09:00:43;;;;;;;39.20;18.20;;;;;;;16.85;100.00;99318.66;111815;1251;22596;-60
2023/11/01 09:03:18;;;;;;;28.70;18.20;;;;;;;16.94;100.00;99309.80;112301;1251;22410;-59
2023/11/01 09:06:24;;;;;;;27.10;16.30;;;;;;;17.05;100.00;99301.95;111729;1251;22549;-61
2023/11/01 09:09:09;;;;;;;33.50;17.70;;;;;;;17.19;100.00;99294.48;111277;1251;22761;-57
2023/11/01 09:11:48;;;;;;;38.20;19.90;;;;;;;17.29;100.00;99291.23;112229;1251;22420;-58
2023/11/01 09:14:37;;;;;;;36.80;17.40;;;;;;;17.44;100.00;99282.98;111884;1241;22258;-59
2023/11/01 09:17:11;;;;;;;33.90;18.10;;;;;;;17.57;100.00;99281.05;112440;1250;22389;-58
2023/11/01 09:19:39;;;;;;;32.70;18.90;;;;;;;17.64;100.00;99278.95;112488;1251;23099;-60
2023/11/01 09:22:06;;;;;;;40.20;20.80;;;;;;;17.67;100.00;99271.77;112562;1243;22368;-60
2023/11/01 09:24:33;;;;;;;32.20;20.60;;;;;;;17.67;100.00;99269.80;112094;1239;23215;-59
2023/11/01 09:27:00;;;;;;;32.30;18.00;;;;;;;17.69;100.00;99267.98;112612;1239;22380;-61
2023/11/01 09:29:34;;;;;;;34.20;17.90;;;;;;;17.71;100.00;99266.66;112636;1251;22372;-60
2023/11/01 09:32:01;;;;;;;30.80;19.30;;;;;;;17.73;100.00;99264.63;112080;1251;22405;-60
2023/11/01 09:34:28;;;;;;;35.90;18.70;;;;;;;17.77;100.00;99271.16;112479;1251;22232;-59
2023/11/01 09:36:55;;;;;;;41.10;19.90;;;;;;;17.77;100.00;99275.89;112539;1251;23171;-59
2023/11/01 09:39:22;;;;;;;40.40;20.00;;;;;;;17.75;100.00;99270.89;112203;1251;22584;-64
2023/11/01 09:42:20;;;;;;;46.70;20.90;;;;;;;17.73;100.00;99274.14;112547;1251;23082;-60
2023/11/01 09:44:49;;;;;;;38.50;19.80;;;;;;;17.70;100.00;99272.15;112630;1251;22430;-58
2023/11/01 09:47:17;;;;;;;44.80;21.50;;;;;;;17.68;100.00;99274.16;111454;1251;22598;-58
2023/11/01 09:49:44;;;;;;;35.30;20.00;;;;;;;17.68;100.00;99270.11;112520;1239;22426;-61
2023/11/01 09:52:11;;;;;;;43.50;21.10;;;;;;;17.70;100.00;99264.73;112714;1251;22726;-59
2023/11/01 09:54:39;;;;;;;30.00;19.30;;;;;;;17.72;100.00;99264.48;112696;1251;22539;-56
2023/11/01 09:57:10;;;;;;;32.30;20.50;;;;;;;17.74;100.00;99265.84;112209;1251;23470;-55
2023/11/01 09:59:38;;;;;;;36.90;20.20;;;;;;;17.75;100.00;99264.73;111749;1251;22465;-60
2023/11/01 10:02:07;;;;;;;44.80;21.30;;;;;;;17.76;100.00;99264.14;112599;1251;22434;-60
2023/11/01 10:04:35;;;;;;;37.90;19.50;;;;;;;17.74;100.00;99263.89;112033;1243;22268;-59
2023/11/01 10:07:04;;;;;;;36.30;19.90;;;;;;;17.71;100.00;99260.83;112097;1251;22527;-61
2023/11/01 10:09:31;;;;;;;34.00;19.70;;;;;;;17.69;100.00;99262.52;112501;1251;23644;-59
2023/11/01 10:11:58;;;;;;;38.70;21.50;;;;;;;17.66;100.00;99264.41;112453;1251;22229;-60
2023/11/01 10:14:30;;;;;;;33.70;20.10;;;;;;;17.63;100.00;99258.54;112036;1239;23219;-59
2023/11/01 10:17:02;;;;;;;36.70;22.20;;;;;;;17.61;100.00;99258.81;111865;1251;22515;-61
2023/11/01 10:19:29;;;;;;;36.00;20.90;;;;;;;17.57;100.00;99257.02;112297;1251;22200;-61
2023/11/01 10:22:09;;;;;;;38.10;21.70;;;;;;;17.54;100.00;99255.56;112474;1251;23032;-61
2023/11/01 10:24:37;;;;;;;30.10;19.30;;;;;;;17.54;100.00;99261.40;112416;1241;22376;-61
2023/11/01 10:27:12;;;;;;;36.30;20.30;;;;;;;17.53;100.00;99267.42;112043;1251;22889;-59
2023/11/01 10:29:44;;;;;;;37.20;17.20;;;;;;;17.52;100.00;99267.31;112039;1239;24171;-61
2023/11/01 10:32:14;;;;;;;30.60;17.10;;;;;;;17.53;100.00;99265.70;112603;1251;22348;-61
2023/11/01 10:34:47;;;;;;;31.40;17.70;;;;;;;17.57;100.00;99264.64;112149;1251;22392;-61
2023/11/01 10:37:18;;;;;;;30.10;16.00;;;;;;;17.64;100.00;99262.02;112318;1251;22249;-61
2023/11/01 10:39:52;;;;;;;29.00;15.10;;;;;;;17.70;100.00;99255.74;112261;1251;22383;-61
2023/11/01 10:42:42;;;;;;;18.80;13.40;;;;;;;17.76;100.00;99256.91;111947;1251;22319;-58
2023/11/01 10:45:28;;;;;;;25.40;13.50;;;;;;;17.78;100.00;99251.52;112312;1251;22397;-59
2023/11/01 10:47:55;;;;;;;34.40;18.80;;;;;;;17.78;100.00;99248.53;112282;1251;22316;-61
2023/11/01 10:50:23;;;;;;;32.90;18.30;;;;;;;17.77;100.00;99245.95;112618;1251;22385;-61
2023/11/01 10:52:50;;;;;;;22.40;14.80;;;;;;;17.75;100.00;99243.73;112620;1251;22172;-60
2023/11/01 10:55:18;;;;;;;27.30;16.00;;;;;;;17.73;100.00;99251.23;112611;1251;22900;-58
2023/11/01 10:57:48;;;;;;;24.70;15.00;;;;;;;17.69;100.00;99254.39;112630;1246;22403;-58
2023/11/01 11:00:24;;;;;;;29.70;13.80;;;;;;;17.63;100.00;99255.02;112288;1251;23215;-58
2023/11/01 11:02:57;;;;;;;23.20;13.90;;;;;;;17.58;100.00;99253.46;112259;1243;22349;-58
2023/11/01 11:05:28;;;;;;;23.40;12.80;;;;;;;17.53;100.00;99263.20;112521;1250;22321;-59
2023/11/01 11:07:56;;;;;;;20.80;12.40;;;;;;;17.49;100.00;99260.05;112112;1251;23001;-58
2023/11/01 11:10:27;;;;;;;26.40;14.10;;;;;;;17.44;100.00;99268.21;112395;1251;22370;-60
2023/11/01 11:13:28;;;;;;;28.00;14.20;;;;;;;17.37;100.00;99268.33;112319;1251;22335;-60
2023/11/01 11:16:01;;;;;;;24.40;13.60;;;;;;;17.33;100.00;99269.03;112391;1251;22569;-60
2023/11/01 11:18:49;;;;;;;22.10;12.60;;;;;;;17.29;100.00;99276.79;112470;1251;22373;-60
2023/11/01 11:21:44;;;;;;;26.60;13.40;;;;;;;17.25;100.00;99279.44;112577;1251;22830;-58
2023/11/01 11:24:36;;;;;;;31.00;14.90;;;;;;;17.21;100.00;99270.41;112419;1251;22408;-58
2023/11/01 11:27:06;;;;;;;20.00;11.90;;;;;;;17.20;100.00;99274.00;112387;1251;22351;-58
2023/11/01 11:29:43;;;;;;;28.60;15.70;;;;;;;17.19;100.00;99284.61;112397;1251;22371;-57
2023/11/01 11:32:17;;;;;;;51.60;25.70;;;;;;;17.17;100.00;99285.61;111823;1251;22482;-56
2023/11/01 11:34:49;;;;;;;36.30;15.40;;;;;;;17.14;100.00;99287.66;112473;1251;23342;-55
2023/11/01 11:37:28;;;;;;;38.30;17.30;;;;;;;17.09;100.00;99283.98;112189;1251;22508;-56
2023/11/01 11:40:02;;;;;;;29.50;12.90;;;;;;;17.06;100.00;99284.33;112411;1251;22224;-58
2023/11/01 11:42:41;;;;;;;;;;;;;;;17.02;100.00;99289.93;112492;1251;26463;-57
2023/11/01 11:45:08;;;;;;;29.20;12.70;;;;;;;16.97;100.00;99288.39;112709;1251;22293;-57
2023/11/01 11:47:38;;;;;;;24.00;11.70;;;;;;;16.90;100.00;99277.23;112441;1251;22964;-57
2023/11/01 11:50:17;;;;;;;30.40;12.60;;;;;;;16.85;100.00;99272.32;112296;1250;23172;-58
2023/11/01 11:52:45;;;;;;;23.70;13.10;;;;;;;16.81;100.00;99269.49;111800;1239;22536;-58
2023/11/01 11:55:12;;;;;;;50.40;26.40;;;;;;;16.76;100.00;99266.20;112758;1251;22343;-56
2023/11/01 11:57:40;;;;;;;66.00;33.40;;;;;;;16.70;100.00;99261.66;112808;1251;23012;-56
2023/11/01 12:00:19;;;;;;;52.00;27.20;;;;;;;16.67;100.00;99249.45;111593;1251;23522;-55
2023/11/01 12:02:59;;;;;;;38.30;22.30;;;;;;;16.65;100.00;99241.96;112167;1251;22991;-58
2023/11/01 12:05:34;;;;;;;31.60;15.40;;;;;;;16.64;100.00;99240.59;111828;1251;22574;-56
2023/11/01 12:08:01;;;;;;;24.50;10.80;;;;;;;16.63;100.00;99241.34;112251;1251;22363;-56
2023/11/01 12:10:29;;;;;;;29.10;13.30;;;;;;;16.60;100.00;99257.83;112559;1250;22810;-58
2023/11/01 12:12:57;;;;;;;42.40;22.30;;;;;;;16.56;100.00;99271.52;112557;1251;22250;-56
2023/11/01 12:15:24;;;;;;;68.10;33.80;;;;;;;16.52;100.00;99268.36;112431;1251;22564;-55
2023/11/01 12:18:09;;;;;;;57.50;24.50;;;;;;;16.46;100.00;99259.45;112109;1251;23190;-55
2023/11/01 12:20:39;;;;;;;29.00;13.90;;;;;;;16.41;100.00;99262.81;112439;1251;22437;-57
2023/11/01 12:23:09;;;;;;;23.40;13.20;;;;;;;16.37;100.00;99267.73;112195;1249;23358;-55
2023/11/01 12:25:36;;;;;;;22.40;13.70;;;;;;;16.32;100.00;99271.98;112515;1243;22622;-55
2023/11/01 12:28:04;;;;;;;19.80;12.80;;;;;;;16.28;100.00;99276.38;112537;1249;22432;-57
2023/11/01 12:30:31;;;;;;;24.00;14.10;;;;;;;16.21;100.00;99275.74;112545;1251;23192;-55
2023/11/01 12:32:58;;;;;;;22.30;14.10;;;;;;;16.12;100.00;99283.52;112416;1241;22527;-59
2023/11/01 12:35:25;;;;;;;27.50;16.80;;;;;;;16.03;100.00;99283.84;112510;1251;22374;-57
2023/11/01 12:37:52;;;;;;;29.40;17.40;;;;;;;15.94;100.00;99289.98;112620;1251;22399;-57
2023/11/01 12:40:20;;;;;;;23.80;15.20;;;;;;;15.88;100.00;99291.46;112662;1250;22368;-58
2023/11/01 12:42:51;;;;;;;47.80;26.30;;;;;;;15.77;100.00;99298.53;112638;1251;23661;-56
2023/11/01 12:45:19;;;;;;;24.60;13.80;;;;;;;15.62;100.00;99302.08;112646;1251;23127;-56
2023/11/01 12:47:52;;;;;;;15.40;8.70;;;;;;;15.37;100.00;99288.55;112612;1251;22373;-58
2023/11/01 12:50:30;;;;;;;9.10;6.10;;;;;;;15.07;100.00;99280.45;112679;1251;22834;-56
2023/11/01 12:52:57;;;;;;;10.10;6.70;;;;;;;14.78;100.00;99284.24;112697;1251;22364;-59
2023/11/01 12:55:24;;;;;;;11.20;6.60;;;;;;;14.50;100.00;99291.79;112707;1251;22384;-57
2023/11/01 12:57:55;;;;;;;11.20;6.20;;;;;;;14.26;100.00;99291.65;112620;1251;23672;-56
2023/11/01 13:00:28;;;;;;;12.70;5.40;;;;;;;14.06;100.00;99301.57;112545;1251;22380;-56
2023/11/01 13:02:56;;;;;;;8.50;5.50;;;;;;;13.90;100.00;99302.38;112661;1251;22395;-56
2023/11/01 13:05:23;;;;;;;9.70;5.20;;;;;;;13.77;100.00;99308.89;112665;1251;22241;-58
2023/11/01 13:07:51;;;;;;;11.90;5.00;;;;;;;13.64;100.00;99320.11;112541;1251;23457;-58
2023/11/01 13:10:17;;;;;;;6.20;5.00;;;;;;;13.51;100.00;99326.27;112553;1250;22623;-57
2023/11/01 13:12:46;;;;;;;13.10;5.60;;;;;;;13.34;100.00;99319.20;112511;1251;22639;-57
2023/11/01 13:15:13;;;;;;;12.50;6.80;;;;;;;13.18;100.00;99310.65;112629;1251;23577;-57
2023/11/01 13:17:40;;;;;;;9.30;5.40;;;;;;;13.04;100.00;99310.11;112598;1251;22374;-57
2023/11/01 13:20:07;;;;;;;8.20;4.90;;;;;;;12.93;100.00;99320.91;112675;1251;23175;-57
2023/11/01 13:22:34;;;;;;;12.70;5.40;;;;;;;12.84;100.00;99323.41;112312;1251;22246;-57
2023/11/01 13:25:01;;;;;;;8.70;4.80;;;;;;;12.77;100.00;99325.33;112663;1251;22464;-58
2023/11/01 13:27:28;;;;;;;6.80;5.20;;;;;;;12.72;100.00;99330.89;112653;1251;22843;-57
2023/11/01 13:29:55;;;;;;;11.50;5.10;;;;;;;12.68;100.00;99330.27;112705;1251;22398;-57
2023/11/01 13:32:22;;;;;;;7.90;5.30;;;;;;;12.65;100.00;99328.07;112665;1251;22834;-57
2023/11/01 13:34:49;;;;;;;10.30;6.40;;;;;;;12.64;100.00;99326.17;112619;1251;22243;-57
2023/11/01 13:37:17;;;;;;;10.10;5.80;;;;;;;12.63;100.00;99320.23;112685;1251;23831;-57
2023/11/01 13:39:45;;;;;;;9.00;5.40;;;;;;;12.62;100.00;99312.74;112699;1251;22341;-57
2023/11/01 13:42:14;;;;;;;6.60;5.00;;;;;;;12.61;100.00;99310.69;112292;1251;23045;-56
2023/11/01 13:44:43;;;;;;;10.30;4.80;;;;;;;12.60;100.00;99304.40;112541;1251;22446;-56
2023/11/01 13:47:12;;;;;;;6.00;5.00;;;;;;;12.59;100.00;99309.16;112658;1251;22449;-57
2023/11/01 13:49:41;;;;;;;6.70;4.70;;;;;;;12.57;100.00;99308.67;112385;1251;23332;-56
2023/11/01 13:52:08;;;;;;;6.30;4.20;;;;;;;12.57;100.00;99301.33;112633;1251;22277;-56
2023/11/01 13:54:36;;;;;;;6.60;4.20;;;;;;;12.56;100.00;99297.84;112467;1242;23177;-57
2023/11/01 13:57:02;;;;;;;7.60;5.10;;;;;;;12.55;100.00;99296.46;112670;1251;22389;-56
2023/11/01 13:59:29;;;;;;;8.70;4.90;;;;;;;12.55;100.00;99303.48;112672;1251;22475;-57
2023/11/01 14:01:56;;;;;;;6.90;3.60;;;;;;;12.53;100.00;99309.98;112483;1251;144205;-56
2023/11/01 14:04:23;;;;;;;9.30;3.70;;;;;;;12.51;100.00;99317.53;112678;1251;23089;-56
2023/11/01 14:06:51;;;;;;;4.80;3.90;;;;;;;12.50;100.00;99322.27;111935;1251;22538;-56
2023/11/01 14:09:17;;;;;;;8.30;4.00;;;;;;;12.49;100.00;99324.76;112772;1251;22367;-55
2023/11/01 14:11:50;;;;;;;4.50;3.50;;;;;;;12.50;100.00;99320.01;112761;1251;22377;-55
2023/11/01 14:14:17;;;;;;;5.70;4.00;;;;;;;12.56;100.00;99318.14;112762;1251;22422;-56
2023/11/01 14:16:44;;;;;;;8.00;4.40;;;;;;;12.62;100.00;99317.48;112757;1251;22344;-56
2023/11/01 14:19:12;;;;;;;6.80;3.90;;;;;;;12.64;100.00;99312.52;112698;1251;23325;-57
2023/11/01 14:21:39;;;;;;;4.20;3.50;;;;;;;12.64;100.00;99312.35;112655;1251;22388;-57
2023/11/01 14:24:07;;;;;;;5.40;4.10;;;;;;;12.64;100.00;99310.42;112721;1251;23076;-56
2023/11/01 14:26:34;;;;;;;21.00;12.70;;;;;;;12.65;100.00;99301.14;112766;1251;22377;-56
2023/11/01 14:29:00;;;;;;;13.20;8.80;;;;;;;12.66;100.00;99298.47;110281;1251;22535;-58
2023/11/01 14:31:29;;;;;;;20.10;10.50;;;;;;;12.66;100.00;99296.21;111717;1251;22390;-55
2023/11/01 14:33:56;;;;;;;10.30;5.70;;;;;;;12.66;100.00;99290.98;112500;1251;22658;-57
2023/11/01 14:36:23;;;;;;;5.40;4.20;;;;;;;12.66;100.00;99294.98;110859;1251;24270;-57
2023/11/01 14:38:49;;;;;;;8.50;5.60;;;;;;;12.65;100.00;99306.71;110628;1251;23233;-57
2023/11/01 14:41:17;;;;;;;16.00;8.90;;;;;;;12.65;100.00;99313.90;110492;1251;23189;-56
2023/11/01 14:43:45;;;;;;;13.20;7.40;;;;;;;12.66;100.00;99317.21;112366;1251;22540;-56
2023/11/01 14:46:13;;;;;;;9.30;5.40;;;;;;;12.66;100.00;99313.70;112277;1251;22405;-58
2023/11/01 14:48:40;;;;;;;5.60;3.70;;;;;;;12.66;100.00;99313.36;112113;1251;22581;-57
